createdAt,value
2023-03-23T15:59:58.226Z,95757.44
2023-03-23T16:02:31.124Z,95755.13
2023-03-23T16:05:03.980Z,95758.25
2023-03-23T16:07:36.729Z,95756.72
2023-03-23T16:10:15.928Z,95752.09
2023-03-23T16:12:48.845Z,95749.03
2023-03-23T16:15:23.211Z,95744.75
2023-03-23T16:17:56.144Z,95745.97
2023-03-23T16:20:30.114Z,95761.91
2023-03-23T16:23:03.040Z,95753.38
2023-03-23T16:25:35.878Z,95753.84
2023-03-23T16:28:11.189Z,95747.69
2023-03-23T16:30:45.861Z,95748.53
2023-03-23T16:33:19.032Z,95755.16
2023-03-23T16:35:51.935Z,95752.47
2023-03-23T16:38:24.641Z,95752.94
2023-03-23T16:40:57.369Z,95754.56
2023-03-23T16:43:30.369Z,95750.34
2023-03-23T16:46:04.833Z,95750.03
2023-03-23T16:48:38.511Z,95755.50
2023-03-23T16:51:11.438Z,95746.66
2023-03-23T16:53:44.438Z,95751.38
2023-03-23T16:56:17.189Z,95752.19
2023-03-23T16:58:49.892Z,95758.84
2023-03-23T17:01:24.214Z,95753.47
2023-03-23T17:03:57.100Z,95760.53
2023-03-23T17:06:29.946Z,95759.41
2023-03-23T17:09:02.794Z,95760.25
2023-03-23T17:11:35.850Z,95764.56
2023-03-23T17:14:08.498Z,95763.44
2023-03-23T17:16:42.724Z,95768.94
2023-03-23T17:19:15.684Z,95775.56
2023-03-23T17:21:48.435Z,95773.28
2023-03-23T17:24:21.292Z,95781.84
2023-03-23T17:26:54.226Z,95768.69
2023-03-23T17:29:27.107Z,95779.97
2023-03-23T17:32:01.160Z,95775.00
2023-03-23T17:34:33.844Z,95781.59
2023-03-23T17:37:06.700Z,95784.75
2023-03-23T17:39:43.133Z,95771.56
2023-03-23T17:42:16.162Z,95781.69
2023-03-23T17:44:48.794Z,95780.13
2023-03-23T17:47:23.926Z,95789.84
2023-03-23T17:49:57.069Z,95789.47
2023-03-23T17:52:29.933Z,95797.25
2023-03-23T17:55:02.596Z,95799.19
2023-03-23T17:57:36.003Z,95799.63
2023-03-23T18:00:09.445Z,95798.09
2023-03-23T18:02:43.692Z,95800.84
2023-03-23T18:05:16.960Z,95798.50
2023-03-23T18:07:50.170Z,95795.84
2023-03-23T18:10:22.850Z,95795.84
2023-03-23T18:12:55.709Z,95797.78
2023-03-23T18:15:29.966Z,95803.22
2023-03-23T18:18:05.224Z,95799.75
2023-03-23T18:20:38.074Z,95797.84
2023-03-23T18:23:10.986Z,95801.72
2023-03-23T18:25:43.861Z,95795.94
2023-03-23T18:28:17.380Z,95796.72
2023-03-23T18:30:50.239Z,95806.03
2023-03-23T18:33:25.898Z,95805.25
2023-03-23T18:35:59.763Z,95804.47
2023-03-23T18:38:39.177Z,95804.47
2023-03-23T18:41:15.225Z,95801.41
2023-03-23T18:43:48.074Z,95794.84
2023-03-23T18:46:20.995Z,95793.28
2023-03-23T18:48:55.495Z,95796.00
2023-03-23T18:51:28.240Z,95797.16
2023-03-23T18:54:01.341Z,95796.03
2023-03-23T18:56:34.002Z,95792.53
2023-03-23T18:59:07.415Z,95792.94
2023-03-23T19:01:40.446Z,95791.41
2023-03-23T19:04:14.802Z,95792.16
2023-03-23T19:06:47.520Z,95799.16
2023-03-23T19:09:20.726Z,95792.19
2023-03-23T19:11:53.436Z,95793.38
2023-03-23T19:14:26.221Z,95785.63
2023-03-23T19:16:59.000Z,95787.19
2023-03-23T19:19:33.224Z,95789.50
2023-03-23T19:22:08.642Z,95781.38
2023-03-23T19:24:41.488Z,95777.53
2023-03-23T19:27:14.263Z,95764.78
2023-03-23T19:29:47.512Z,95760.91
2023-03-23T19:32:20.929Z,95769.00
2023-03-23T19:34:55.475Z,95754.31
2023-03-23T19:37:28.505Z,95760.88
2023-03-23T19:40:06.643Z,95747.34
2023-03-23T19:42:45.755Z,95757.78
2023-03-23T19:45:19.048Z,95748.50
2023-03-23T19:47:51.839Z,95756.22
2023-03-23T19:50:26.410Z,95753.50
2023-03-23T19:53:00.550Z,95745.00
2023-03-23T19:55:33.546Z,95746.53
2023-03-23T19:58:06.280Z,95748.41
2023-03-23T20:00:39.245Z,95747.66
2023-03-23T20:03:12.264Z,95745.72
2023-03-23T20:05:48.450Z,95736.81
2023-03-23T20:08:21.974Z,95735.63
2023-03-23T20:11:02.029Z,95735.59
2023-03-23T20:13:34.830Z,95729.03
2023-03-23T20:16:08.213Z,95720.16
2023-03-23T20:18:41.454Z,95722.81
2023-03-23T20:21:19.646Z,95718.22
2023-03-23T20:23:54.141Z,95712.41
2023-03-23T20:26:27.796Z,95713.94
2023-03-23T20:29:00.689Z,95712.38
2023-03-23T20:31:36.632Z,95696.56
2023-03-23T20:34:10.959Z,95691.16
2023-03-23T20:36:46.224Z,95686.53
2023-03-23T20:39:21.398Z,95684.59
2023-03-23T20:41:58.649Z,95672.25
2023-03-23T20:44:36.159Z,95678.75
2023-03-23T20:47:09.903Z,95676.84
2023-03-23T20:49:42.616Z,95667.94
2023-03-23T20:52:27.514Z,95664.84
2023-03-23T20:55:00.955Z,95666.75
2023-03-23T20:57:34.344Z,95660.19
2023-03-23T21:00:09.444Z,95658.22
2023-03-23T21:02:42.433Z,95655.88
2023-03-23T21:05:15.557Z,95656.22
2023-03-23T21:07:51.042Z,95674.22
2023-03-23T21:10:25.783Z,95673.75
2023-03-23T21:12:58.789Z,95677.56
2023-03-23T21:15:32.276Z,95683.66
2023-03-23T21:18:05.189Z,95670.50
2023-03-23T21:20:38.857Z,95661.59
2023-03-23T21:23:14.880Z,95661.53
2023-03-23T21:25:47.882Z,95651.06
2023-03-23T21:28:20.864Z,95643.34
2023-03-23T21:30:54.744Z,95646.00
2023-03-23T21:33:28.175Z,95649.47
2023-03-23T21:36:01.218Z,95650.97
2023-03-23T21:38:35.507Z,95654.03
2023-03-23T21:41:09.563Z,95655.16
2023-03-23T21:43:45.857Z,95649.38
2023-03-23T21:46:19.276Z,95640.56
2023-03-23T21:48:52.357Z,95632.84
2023-03-23T21:51:25.984Z,95618.25
2023-03-23T21:54:00.139Z,95623.63
2023-03-23T21:56:33.148Z,95618.25
2023-03-23T21:59:07.695Z,95623.63
2023-03-23T22:01:41.429Z,95627.09
2023-03-23T22:04:14.236Z,95628.63
2023-03-23T22:06:47.964Z,95624.41
2023-03-23T22:09:22.059Z,95621.31
2023-03-23T22:11:55.053Z,95615.16
2023-03-23T22:14:27.853Z,95617.84
2023-03-23T22:17:01.165Z,95609.78
2023-03-23T22:19:34.260Z,95610.53
2023-03-23T22:22:07.178Z,95602.47
2023-03-23T22:24:41.680Z,95597.09
2023-03-23T22:27:14.710Z,95607.84
2023-03-23T22:29:47.373Z,95609.78
2023-03-23T22:32:20.481Z,95610.53
2023-03-23T22:34:53.693Z,95604.03
2023-03-23T22:37:26.483Z,95600.19
2023-03-23T22:40:01.047Z,95604.78
2023-03-23T22:42:33.831Z,95595.22
2023-03-23T22:45:09.077Z,95586.78
2023-03-23T22:47:41.913Z,95590.63
2023-03-23T22:50:14.743Z,95592.16
2023-03-23T22:52:47.414Z,95594.13
2023-03-23T22:55:21.577Z,95591.06
2023-03-23T22:57:54.410Z,95581.84
2023-03-23T23:00:27.543Z,95609.91
2023-03-23T23:03:00.253Z,95593.38
2023-03-23T23:05:33.097Z,95599.19
2023-03-23T23:08:05.919Z,95623.03
2023-03-23T23:10:40.379Z,95623.03
2023-03-23T23:13:14.022Z,95628.84
2023-03-23T23:15:48.621Z,95633.44
2023-03-23T23:18:21.843Z,95660.38
2023-03-23T23:20:55.828Z,95658.41
2023-03-23T23:23:29.252Z,95655.31
2023-03-23T23:26:03.802Z,95638.38
2023-03-23T23:28:37.316Z,95644.53
2023-03-23T23:31:19.521Z,95635.28
2023-03-23T23:33:52.216Z,95657.53
2023-03-23T23:36:28.133Z,95667.16
2023-03-23T23:39:02.316Z,95642.53
2023-03-23T23:41:36.735Z,95650.19
2023-03-23T23:44:09.516Z,95650.56
2023-03-23T23:46:42.358Z,95651.31
2023-03-23T23:49:15.108Z,95648.63
2023-03-23T23:51:48.430Z,95642.84
2023-03-23T23:54:22.985Z,95637.84
2023-03-23T23:56:57.286Z,95643.63
2023-03-23T23:59:30.451Z,95632.84
